Time;durP1;ratioP1;P1;durP2;ratioP2;P2;SDS_P1;SDS_P2;PMS_P1;PMS_P2;Temp;Humidity;BMP_temperature;BMP_pressure;BME280_temperature;BME280_humidity;BME280_pressure;Samples;Min_cycle;Max_cycle;Signal;HPM_P1;HPM_P2
2021/11/30 00:01:45;;;;;;;3.40;2.20;;;;;;;;;;5048904;28;20076;-61
2021/11/30 00:04:13;;;;;;;4.88;1.98;;;;;;;;;;5050015;28;20048;-64
2021/11/30 00:06:41;;;;;;;2.25;1.95;;;;;;;;;;5049310;28;20098;-60
2021/11/30 00:11:50;;;;;;;2.90;1.98;;;;;;;;;;5053655;28;20041;-61
2021/11/30 00:14:17;;;;;;;2.13;2.03;;;;;;;;;;5044839;28;20046;-61
2021/11/30 00:16:44;;;;;;;2.15;2.05;;;;;;;;;;5035779;28;20396;-61
2021/11/30 00:19:11;;;;;;;2.40;2.20;;;;;;;;;;5035341;28;20065;-62
2021/11/30 00:21:38;;;;;;;2.00;1.90;;;;;;;;;;5035028;28;20056;-62
2021/11/30 00:24:05;;;;;;;1.98;1.88;;;;;;;;;;5035406;28;20068;-62
2021/11/30 00:26:32;;;;;;;1.95;1.85;;;;;;;;;;5035118;28;20423;-61
2021/11/30 00:29:02;;;;;;;2.42;2.22;;;;;;;;;;5034550;28;20045;-61
2021/11/30 00:31:29;;;;;;;3.90;1.90;;;;;;;;;;5034744;28;20037;-61
2021/11/30 00:33:56;;;;;;;1.92;1.83;;;;;;;;;;5034975;28;20052;-62
2021/11/30 00:36:23;;;;;;;1.95;1.85;;;;;;;;;;5034930;28;20059;-61
2021/11/30 00:38:50;;;;;;;2.45;2.25;;;;;;;;;;5035112;28;20037;-60
2021/11/30 00:41:17;;;;;;;2.13;1.88;;;;;;;;;;5034875;28;20042;-61
2021/11/30 00:43:44;;;;;;;1.80;1.70;;;;;;;;;;5034913;28;20053;-61
2021/11/30 00:46:31;;;;;;;1.77;1.67;;;;;;;;;;5034995;28;20045;-61
2021/11/30 00:48:59;;;;;;;2.20;2.05;;;;;;;;;;5034663;28;20404;-61
2021/11/30 00:51:26;;;;;;;2.17;1.92;;;;;;;;;;5034713;28;20045;-61
2021/11/30 00:53:53;;;;;;;2.65;2.30;;;;;;;;;;5034346;28;20042;-61
2021/11/30 00:56:20;;;;;;;1.95;1.85;;;;;;;;;;5035062;28;20491;-61
2021/11/30 00:58:47;;;;;;;2.17;2.08;;;;;;;;;;5034338;28;20049;-60
2021/11/30 01:01:15;;;;;;;1.80;1.70;;;;;;;;;;5034677;28;20042;-60
2021/11/30 01:03:42;;;;;;;2.08;1.98;;;;;;;;;;5034582;28;20508;-60
2021/11/30 01:06:09;;;;;;;1.80;1.70;;;;;;;;;;5034876;28;20400;-60
2021/11/30 01:08:36;;;;;;;1.80;1.70;;;;;;;;;;5034351;28;20499;-60
2021/11/30 01:11:04;;;;;;;3.58;1.60;;;;;;;;;;5034522;28;20050;-60
2021/11/30 01:13:33;;;;;;;2.42;2.22;;;;;;;;;;5034463;28;20037;-60
2021/11/30 01:16:01;;;;;;;1.70;1.60;;;;;;;;;;5034705;28;20107;-60
2021/11/30 01:18:28;;;;;;;2.00;1.88;;;;;;;;;;5034516;28;20128;-60
2021/11/30 01:20:55;;;;;;;2.75;1.90;;;;;;;;;;5034108;28;20503;-60
2021/11/30 01:23:22;;;;;;;2.50;2.28;;;;;;;;;;5034605;28;20037;-60
2021/11/30 01:25:49;;;;;;;2.03;1.92;;;;;;;;;;5033886;28;20099;-60
2021/11/30 01:28:16;;;;;;;1.80;1.70;;;;;;;;;;5034024;28;20492;-61
2021/11/30 01:30:43;;;;;;;2.05;1.95;;;;;;;;;;5033687;28;20511;-61
2021/11/30 01:33:11;;;;;;;2.03;1.90;;;;;;;;;;5034009;28;20049;-60
2021/11/30 01:35:38;;;;;;;1.80;1.70;;;;;;;;;;5033625;28;20132;-60
2021/11/30 01:38:05;;;;;;;1.90;1.80;;;;;;;;;;5033889;28;20042;-60
2021/11/30 01:40:32;;;;;;;2.17;2.08;;;;;;;;;;5034001;28;20046;-60
2021/11/30 01:43:00;;;;;;;3.22;2.05;;;;;;;;;;5033717;28;20492;-59
2021/11/30 01:49:12;;;;;;;1.90;1.80;;;;;;;;;;5033806;28;20120;-60
2021/11/30 01:51:00;;;;;;;3.00;2.80;;;;;;;;;;5033362;28;20488;-59
2021/11/30 01:53:27;;;;;;;1.83;1.73;;;;;;;;;;5033474;28;20041;-59
2021/11/30 01:55:54;;;;;;;2.35;2.20;;;;;;;;;;5033908;28;20377;-58
2021/11/30 01:58:21;;;;;;;3.25;2.13;;;;;;;;;;5033611;28;20131;-59
2021/11/30 02:00:49;;;;;;;2.15;1.98;;;;;;;;;;5033955;28;20045;-59
2021/11/30 02:03:19;;;;;;;3.50;2.13;;;;;;;;;;5033525;28;20498;-60
2021/11/30 02:05:46;;;;;;;7.03;2.05;;;;;;;;;;5033452;28;20091;-60
2021/11/30 02:08:13;;;;;;;2.35;2.15;;;;;;;;;;5033182;28;20538;-60
2021/11/30 02:10:40;;;;;;;3.15;2.55;;;;;;;;;;5033557;28;20048;-59
2021/11/30 02:13:07;;;;;;;2.03;1.92;;;;;;;;;;5033606;28;20037;-60
2021/11/30 02:15:40;;;;;;;2.20;2.00;;;;;;;;;;5033223;28;20104;-60
2021/11/30 02:18:12;;;;;;;1.98;1.88;;;;;;;;;;5033573;28;20053;-60
2021/11/30 02:20:45;;;;;;;1.80;1.70;;;;;;;;;;5032947;28;20049;-61
2021/11/30 02:23:30;;;;;;;1.90;1.80;;;;;;;;;;5033640;28;20049;-59
2021/11/30 02:25:59;;;;;;;1.90;1.80;;;;;;;;;;5033318;28;20045;-60
2021/11/30 02:28:26;;;;;;;1.77;1.67;;;;;;;;;;5033428;28;20071;-60
2021/11/30 02:30:53;;;;;;;1.60;1.50;;;;;;;;;;5032817;28;20087;-61
2021/11/30 02:33:20;;;;;;;2.55;1.95;;;;;;;;;;5044325;28;20098;-60
2021/11/30 02:35:47;;;;;;;2.00;1.90;;;;;;;;;;5033145;28;20049;-60
2021/11/30 02:38:14;;;;;;;1.65;1.55;;;;;;;;;;5033137;28;20041;-60
2021/11/30 02:40:42;;;;;;;1.83;1.73;;;;;;;;;;5032615;28;20038;-60
2021/11/30 02:43:09;;;;;;;3.65;1.80;;;;;;;;;;5032792;28;20054;-59
2021/11/30 02:45:36;;;;;;;1.98;1.88;;;;;;;;;;5043272;28;20402;-58
2021/11/30 02:48:03;;;;;;;1.80;1.70;;;;;;;;;;5052729;28;20442;-64
2021/11/30 02:50:38;;;;;;;1.55;1.52;;;;;;;;;;5052558;28;20093;-60
2021/11/30 02:53:06;;;;;;;1.90;1.80;;;;;;;;;;5052205;28;20048;-60
2021/11/30 02:55:33;;;;;;;1.73;1.63;;;;;;;;;;5052426;28;20037;-62
2021/11/30 02:58:00;;;;;;;2.00;1.90;;;;;;;;;;5052385;28;20479;-62
2021/11/30 03:00:27;;;;;;;3.20;2.17;;;;;;;;;;5052544;28;20072;-62
2021/11/30 03:02:54;;;;;;;2.08;1.95;;;;;;;;;;5052247;28;20432;-61
2021/11/30 03:05:21;;;;;;;2.10;1.90;;;;;;;;;;5052390;28;20052;-62
2021/11/30 03:07:48;;;;;;;2.38;2.17;;;;;;;;;;5052569;28;20033;-62
2021/11/30 03:10:18;;;;;;;2.03;1.85;;;;;;;;;;5052165;28;20831;-61
2021/11/30 03:12:46;;;;;;;1.77;1.67;;;;;;;;;;5051998;28;20045;-61
2021/11/30 03:15:20;;;;;;;2.22;1.80;;;;;;;;;;5052065;28;20407;-62
2021/11/30 03:17:47;;;;;;;2.13;1.73;;;;;;;;;;5049785;28;20071;-60
2021/11/30 03:20:15;;;;;;;2.03;1.92;;;;;;;;;;5034760;28;20049;-59
2021/11/30 03:22:42;;;;;;;1.90;1.75;;;;;;;;;;5052428;28;20056;-60
2021/11/30 03:25:11;;;;;;;1.90;1.80;;;;;;;;;;5052215;28;20075;-60
2021/11/30 03:27:38;;;;;;;1.90;1.80;;;;;;;;;;5052371;28;20369;-60
2021/11/30 03:30:07;;;;;;;1.95;1.85;;;;;;;;;;5051877;28;20049;-61
2021/11/30 03:35:03;;;;;;;2.78;2.20;;;;;;;;;;5051727;28;20045;-61
2021/11/30 03:37:31;;;;;;;2.50;2.30;;;;;;;;;;5051889;28;20045;-61
2021/11/30 03:39:58;;;;;;;3.40;2.33;;;;;;;;;;5051852;28;20037;-60
2021/11/30 03:42:25;;;;;;;1.90;1.80;;;;;;;;;;5051875;28;20053;-61
2021/11/30 03:44:53;;;;;;;1.80;1.70;;;;;;;;;;5051916;28;20060;-61
2021/11/30 03:47:22;;;;;;;2.03;1.90;;;;;;;;;;5051438;28;20037;-61
2021/11/30 03:49:49;;;;;;;2.45;2.28;;;;;;;;;;5052213;28;20110;-61
2021/11/30 03:52:16;;;;;;;1.98;1.88;;;;;;;;;;5051805;28;20040;-62
2021/11/30 03:54:43;;;;;;;1.70;1.60;;;;;;;;;;5051872;28;20041;-61
2021/11/30 03:57:10;;;;;;;1.90;1.80;;;;;;;;;;5051817;28;20047;-61
2021/11/30 03:59:36;;;;;;;1.90;1.80;;;;;;;;;;5052049;28;20090;-61
2021/11/30 04:02:04;;;;;;;1.90;1.80;;;;;;;;;;5051480;28;20041;-60
2021/11/30 04:04:35;;;;;;;2.35;1.75;;;;;;;;;;5054491;28;20041;-61
2021/11/30 04:07:02;;;;;;;1.75;1.65;;;;;;;;;;5055079;28;20041;-61
2021/11/30 04:09:29;;;;;;;1.90;1.80;;;;;;;;;;5055829;28;20037;-61
2021/11/30 04:11:56;;;;;;;5.35;1.70;;;;;;;;;;5055250;28;20045;-60
2021/11/30 04:14:25;;;;;;;1.80;1.70;;;;;;;;;;5055529;28;20069;-62
2021/11/30 04:16:52;;;;;;;2.00;1.90;;;;;;;;;;5054955;28;20429;-61
2021/11/30 04:19:19;;;;;;;2.65;2.45;;;;;;;;;;5037748;28;20074;-61
2021/11/30 04:21:47;;;;;;;1.90;1.80;;;;;;;;;;5054938;28;20041;-61
2021/11/30 04:24:14;;;;;;;1.75;1.65;;;;;;;;;;5055319;28;20041;-60
2021/11/30 04:26:40;;;;;;;2.00;1.90;;;;;;;;;;5055384;28;20049;-62
2021/11/30 04:29:08;;;;;;;2.20;2.10;;;;;;;;;;5054639;28;20048;-60
2021/11/30 04:31:35;;;;;;;2.15;2.05;;;;;;;;;;5055076;28;20041;-61
2021/11/30 04:34:03;;;;;;;1.90;1.80;;;;;;;;;;5054003;28;20065;-60
2021/11/30 04:36:32;;;;;;;1.77;1.70;;;;;;;;;;5055031;28;20568;-60
2021/11/30 04:38:59;;;;;;;1.80;1.70;;;;;;;;;;5054577;28;20510;-60
2021/11/30 04:41:26;;;;;;;3.08;1.90;;;;;;;;;;5049918;28;20050;-62
2021/11/30 04:43:55;;;;;;;2.10;2.00;;;;;;;;;;5054594;28;20052;-61
2021/11/30 04:46:26;;;;;;;2.40;2.20;;;;;;;;;;5054256;28;20045;-60
2021/11/30 04:48:58;;;;;;;1.88;1.77;;;;;;;;;;5054887;28;20041;-61
2021/11/30 04:51:30;;;;;;;1.90;1.80;;;;;;;;;;5054240;28;20041;-61
2021/11/30 04:53:58;;;;;;;1.80;1.70;;;;;;;;;;5054827;28;20045;-60
2021/11/30 04:56:25;;;;;;;1.80;1.70;;;;;;;;;;5054155;28;20491;-60
2021/11/30 04:58:52;;;;;;;1.80;1.67;;;;;;;;;;5054693;28;20128;-62
2021/11/30 05:01:19;;;;;;;1.85;1.75;;;;;;;;;;5054172;28;20487;-61
2021/11/30 05:03:48;;;;;;;2.30;1.73;;;;;;;;;;5054252;28;20045;-61
2021/11/30 05:06:15;;;;;;;1.80;1.70;;;;;;;;;;5054279;28;20060;-60
2021/11/30 05:08:42;;;;;;;1.45;1.40;;;;;;;;;;5054036;28;20055;-62
2021/11/30 05:11:09;;;;;;;1.75;1.65;;;;;;;;;;5034751;28;20044;-61
2021/11/30 05:13:37;;;;;;;1.88;1.70;;;;;;;;;;5034675;28;20441;-61
2021/11/30 05:16:04;;;;;;;1.67;1.58;;;;;;;;;;5034715;28;20128;-61
2021/11/30 05:18:31;;;;;;;1.80;1.70;;;;;;;;;;5034649;28;20042;-61
2021/11/30 05:20:59;;;;;;;2.00;1.90;;;;;;;;;;5044783;28;20196;-60
2021/11/30 05:23:29;;;;;;;1.77;1.67;;;;;;;;;;5034012;28;20083;-61
2021/11/30 05:26:01;;;;;;;1.92;1.83;;;;;;;;;;5034392;28;20095;-61
2021/11/30 05:28:28;;;;;;;2.03;1.83;;;;;;;;;;5033962;28;20048;-60
2021/11/30 05:30:58;;;;;;;1.88;1.77;;;;;;;;;;5034206;28;20045;-60
2021/11/30 05:33:25;;;;;;;2.00;1.90;;;;;;;;;;5033715;28;20042;-60
2021/11/30 05:35:52;;;;;;;1.70;1.60;;;;;;;;;;5034165;28;20045;-61
2021/11/30 05:38:19;;;;;;;1.70;1.60;;;;;;;;;;5033906;28;20044;-60
2021/11/30 05:40:47;;;;;;;1.70;1.60;;;;;;;;;;5033425;28;20048;-61
2021/11/30 05:43:14;;;;;;;2.15;1.80;;;;;;;;;;5033706;28;20052;-61
2021/11/30 05:45:41;;;;;;;2.42;2.03;;;;;;;;;;5033884;28;20046;-61
2021/11/30 05:48:09;;;;;;;1.88;1.77;;;;;;;;;;5034057;28;20392;-61
2021/11/30 05:50:35;;;;;;;1.80;1.70;;;;;;;;;;5048845;28;20037;-60
2021/11/30 05:53:03;;;;;;;2.15;1.80;;;;;;;;;;5044526;28;20133;-61
2021/11/30 05:55:31;;;;;;;1.92;1.83;;;;;;;;;;5048131;28;20045;-61
2021/11/30 05:57:58;;;;;;;1.90;1.80;;;;;;;;;;5046881;28;20045;-60
2021/11/30 06:00:27;;;;;;;2.25;1.80;;;;;;;;;;5046373;28;20045;-61
2021/11/30 06:03:20;;;;;;;1.70;1.60;;;;;;;;;;5050633;28;20041;-60
2021/11/30 06:05:47;;;;;;;1.83;1.73;;;;;;;;;;5033507;28;20047;-60
2021/11/30 06:08:14;;;;;;;1.90;1.80;;;;;;;;;;5044995;28;20099;-60
2021/11/30 06:10:40;;;;;;;1.80;1.70;;;;;;;;;;5045507;28;20045;-60
2021/11/30 06:13:07;;;;;;;1.70;1.60;;;;;;;;;;5051964;28;20498;-60
2021/11/30 06:15:34;;;;;;;1.85;1.70;;;;;;;;;;5052203;28;20051;-62
2021/11/30 06:18:02;;;;;;;3.85;1.88;;;;;;;;;;5046737;28;20488;-60
2021/11/30 06:20:29;;;;;;;11.75;2.38;;;;;;;;;;5044554;28;20040;-61
2021/11/30 06:22:56;;;;;;;1.80;1.70;;;;;;;;;;5051786;28;20052;-61
2021/11/30 06:25:23;;;;;;;1.80;1.70;;;;;;;;;;5039060;28;20049;-61
2021/11/30 06:27:50;;;;;;;1.83;1.73;;;;;;;;;;5044107;28;20491;-60
2021/11/30 06:30:17;;;;;;;1.80;1.70;;;;;;;;;;5043104;28;20038;-61
2021/11/30 06:32:44;;;;;;;3.58;1.90;;;;;;;;;;5045638;28;20072;-61
2021/11/30 06:35:11;;;;;;;2.33;1.90;;;;;;;;;;5049086;28;20048;-61
2021/11/30 06:37:38;;;;;;;3.65;3.33;;;;;;;;;;5044357;28;20037;-62
2021/11/30 06:40:05;;;;;;;5.18;2.58;;;;;;;;;;5044591;28;20033;-59
2021/11/30 06:42:32;;;;;;;2.40;2.20;;;;;;;;;;5038689;28;20041;-62
2021/11/30 06:45:01;;;;;;;2.58;2.30;;;;;;;;;;5048130;28;20052;-60
2021/11/30 06:47:28;;;;;;;1.73;1.63;;;;;;;;;;5046200;28;20817;-58
2021/11/30 06:49:55;;;;;;;1.70;1.60;;;;;;;;;;5026080;28;20044;-54
2021/11/30 06:52:22;;;;;;;1.95;1.85;;;;;;;;;;5040605;28;20138;-60
2021/11/30 06:54:54;;;;;;;1.80;1.70;;;;;;;;;;5047172;28;20036;-60
2021/11/30 06:57:22;;;;;;;1.85;1.70;;;;;;;;;;5040063;28;20045;-60
2021/11/30 06:59:50;;;;;;;1.98;1.88;;;;;;;;;;5044045;28;20045;-60
2021/11/30 07:02:17;;;;;;;1.83;1.73;;;;;;;;;;5043949;28;20377;-60
2021/11/30 07:04:47;;;;;;;2.10;2.00;;;;;;;;;;5042652;28;20049;-59
2021/11/30 07:07:28;;;;;;;1.70;1.60;;;;;;;;;;5040538;28;20044;-59
2021/11/30 07:10:22;;;;;;;2.00;1.90;;;;;;;;;;5046500;28;20124;-60
2021/11/30 07:13:04;;;;;;;4.15;1.90;;;;;;;;;;5045461;28;20037;-59
2021/11/30 07:15:31;;;;;;;1.40;1.40;;;;;;;;;;5041526;28;20037;-55
2021/11/30 07:18:00;;;;;;;1.98;1.67;;;;;;;;;;5042209;28;20045;-55
2021/11/30 07:20:27;;;;;;;1.88;1.77;;;;;;;;;;5044161;28;20044;-60
2021/11/30 07:22:56;;;;;;;1.90;1.80;;;;;;;;;;5051243;28;20503;-55
2021/11/30 07:25:24;;;;;;;1.60;1.50;;;;;;;;;;5050030;28;20057;-56
2021/11/30 07:27:52;;;;;;;2.67;1.70;;;;;;;;;;5051252;28;20045;-54
2021/11/30 07:30:20;;;;;;;1.60;1.50;;;;;;;;;;5051544;28;20045;-55
2021/11/30 07:32:47;;;;;;;1.55;1.45;;;;;;;;;;5050053;28;20043;-55
2021/11/30 07:35:14;;;;;;;1.67;1.58;;;;;;;;;;5049283;28;20132;-55
2021/11/30 07:37:41;;;;;;;1.90;1.80;;;;;;;;;;5050943;28;20037;-55
2021/11/30 07:40:09;;;;;;;1.67;1.58;;;;;;;;;;5053289;28;20041;-55
2021/11/30 07:42:36;;;;;;;1.60;1.50;;;;;;;;;;5054247;28;20045;-56
2021/11/30 07:45:05;;;;;;;1.63;1.55;;;;;;;;;;5036219;28;20056;-50
2021/11/30 07:47:37;;;;;;;1.80;1.50;;;;;;;;;;5054917;28;20056;-55
2021/11/30 07:50:05;;;;;;;4.40;1.70;;;;;;;;;;5055012;28;21085;-55
2021/11/30 07:52:37;;;;;;;1.95;1.73;;;;;;;;;;5055113;28;20569;-55
2021/11/30 07:55:05;;;;;;;1.75;1.65;;;;;;;;;;5055183;28;20118;-55
2021/11/30 07:57:33;;;;;;;2.42;1.90;;;;;;;;;;5054831;28;20395;-55
2021/11/30 08:00:00;;;;;;;1.52;1.42;;;;;;;;;;5055283;28;20442;-55
2021/11/30 08:02:37;;;;;;;1.58;1.48;;;;;;;;;;5054687;28;20099;-55
2021/11/30 08:05:05;;;;;;;2.42;2.30;;;;;;;;;;5055310;28;20047;-53
2021/11/30 08:07:33;;;;;;;1.58;1.48;;;;;;;;;;5054498;28;20513;-54
2021/11/30 08:10:00;;;;;;;1.58;1.48;;;;;;;;;;5055114;28;20037;-52
2021/11/30 08:12:27;;;;;;;1.52;1.42;;;;;;;;;;5054923;28;20044;-54
2021/11/30 08:14:54;;;;;;;2.08;1.95;;;;;;;;;;5055144;28;20045;-55
2021/11/30 08:17:21;;;;;;;1.70;1.60;;;;;;;;;;5055020;28;20572;-55
2021/11/30 08:19:48;;;;;;;2.38;1.75;;;;;;;;;;5037024;28;20045;-55
2021/11/30 08:22:15;;;;;;;2.80;1.55;;;;;;;;;;5055289;28;20042;-54
2021/11/30 08:24:43;;;;;;;2.97;1.50;;;;;;;;;;5055181;28;20187;-54
2021/11/30 08:27:10;;;;;;;1.92;1.83;;;;;;;;;;5055199;28;20395;-56
2021/11/30 08:29:40;;;;;;;1.60;1.50;;;;;;;;;;5054766;28;20041;-56
2021/11/30 08:32:08;;;;;;;2.20;1.30;;;;;;;;;;5055035;28;20071;-59
2021/11/30 08:34:37;;;;;;;3.15;1.67;;;;;;;;;;5054531;28;20053;-56
2021/11/30 08:37:05;;;;;;;1.60;1.50;;;;;;;;;;5054939;28;20074;-55
2021/11/30 08:39:33;;;;;;;2.33;2.13;;;;;;;;;;5054663;28;20423;-55
2021/11/30 08:42:01;;;;;;;1.60;1.50;;;;;;;;;;5054422;28;20056;-56
2021/11/30 08:44:29;;;;;;;2.08;1.98;;;;;;;;;;5054676;28;20052;-54
2021/11/30 08:47:01;;;;;;;1.30;1.30;;;;;;;;;;5054825;28;20502;-56
2021/11/30 08:49:28;;;;;;;1.85;1.67;;;;;;;;;;5053890;28;20140;-56
2021/11/30 08:51:56;;;;;;;1.35;1.20;;;;;;;;;;5054577;28;20060;-56
2021/11/30 08:54:28;;;;;;;1.30;1.20;;;;;;;;;;5053897;28;20460;-56
2021/11/30 08:56:57;;;;;;;1.50;1.40;;;;;;;;;;5034341;28;20053;-56
2021/11/30 08:59:24;;;;;;;1.45;1.40;;;;;;;;;;5034678;28;20095;-56
2021/11/30 09:01:52;;;;;;;1.55;1.30;;;;;;;;;;5034320;28;20045;-56
2021/11/30 09:04:19;;;;;;;3.38;1.58;;;;;;;;;;5034866;28;20053;-55
2021/11/30 09:06:46;;;;;;;1.67;1.58;;;;;;;;;;5034528;28;20408;-56
2021/11/30 09:09:13;;;;;;;1.30;1.20;;;;;;;;;;5034759;28;20037;-55
2021/11/30 09:12:00;;;;;;;1.30;1.30;;;;;;;;;;5034530;28;20099;-55
2021/11/30 09:14:28;;;;;;;1.38;1.20;;;;;;;;;;5034642;28;20427;-55
2021/11/30 09:16:56;;;;;;;1.40;1.30;;;;;;;;;;5034476;28;20499;-56
2021/11/30 09:19:23;;;;;;;2.15;1.95;;;;;;;;;;5034085;28;20037;-55
2021/11/30 09:21:50;;;;;;;1.58;1.48;;;;;;;;;;5054410;28;20048;-54
2021/11/30 09:24:17;;;;;;;1.27;1.20;;;;;;;;;;5053963;28;20041;-56
2021/11/30 09:26:44;;;;;;;1.92;1.40;;;;;;;;;;5053473;28;20052;-57
2021/11/30 09:29:12;;;;;;;0.90;0.90;;;;;;;;;;5053534;28;20541;-57
2021/11/30 09:31:39;;;;;;;2.55;1.27;;;;;;;;;;5053844;28;20040;-56
2021/11/30 09:34:08;;;;;;;2.03;1.80;;;;;;;;;;5053484;28;20512;-56
2021/11/30 09:36:36;;;;;;;2.45;1.75;;;;;;;;;;5053904;28;20057;-57
2021/11/30 09:39:06;;;;;;;3.55;1.25;;;;;;;;;;5053574;28;20048;-56
2021/11/30 09:41:34;;;;;;;1.88;1.67;;;;;;;;;;5053432;28;20052;-57
2021/11/30 09:44:03;;;;;;;2.35;1.88;;;;;;;;;;5053388;28;20135;-56
2021/11/30 09:46:31;;;;;;;1.40;1.30;;;;;;;;;;5053153;28;20048;-55
2021/11/30 09:48:58;;;;;;;2.47;1.35;;;;;;;;;;5054015;28;20049;-56
2021/11/30 09:51:25;;;;;;;1.35;1.20;;;;;;;;;;5053180;28;20055;-56
2021/11/30 09:53:52;;;;;;;2.47;1.60;;;;;;;;;;5053670;28;20037;-56
2021/11/30 09:56:19;;;;;;;1.30;1.20;;;;;;;;;;5052975;28;20045;-56
2021/11/30 09:58:47;;;;;;;1.10;1.00;;;;;;;;;;5053416;28;20136;-57
2021/11/30 10:01:16;;;;;;;1.23;1.10;;;;;;;;;;5052136;28;20124;-57
2021/11/30 10:03:44;;;;;;;1.67;1.20;;;;;;;;;;5047433;28;20045;-56
2021/11/30 10:06:11;;;;;;;1.38;1.30;;;;;;;;;;5053344;28;20053;-57
2021/11/30 10:08:40;;;;;;;1.10;1.10;;;;;;;;;;5053165;28;20112;-57
2021/11/30 10:11:11;;;;;;;1.38;1.27;;;;;;;;;;5053056;28;20488;-58
2021/11/30 10:13:43;;;;;;;1.80;1.70;;;;;;;;;;5035873;28;20037;-60
2021/11/30 10:16:10;;;;;;;4.18;1.90;;;;;;;;;;5053080;28;20493;-56
2021/11/30 10:18:39;;;;;;;1.08;0.95;;;;;;;;;;5052767;28;20483;-56
2021/11/30 10:21:06;;;;;;;1.20;1.10;;;;;;;;;;5053019;28;20052;-55
2021/11/30 10:23:54;;;;;;;2.17;1.20;;;;;;;;;;5053066;28;20402;-57
2021/11/30 10:26:32;;;;;;;1.30;1.10;;;;;;;;;;5053340;28;20449;-57
2021/11/30 10:29:06;;;;;;;1.77;1.67;;;;;;;;;;5052168;28;20072;-56
2021/11/30 10:31:36;;;;;;;1.40;1.30;;;;;;;;;;5052990;28;20483;-56
2021/11/30 10:34:17;;;;;;;1.30;1.20;;;;;;;;;;5052891;28;20137;-56
2021/11/30 10:36:49;;;;;;;1.63;1.52;;;;;;;;;;5052976;28;20486;-56
2021/11/30 10:39:20;;;;;;;1.40;1.17;;;;;;;;;;5052269;28;20052;-56
2021/11/30 10:41:48;;;;;;;1.10;1.00;;;;;;;;;;5052937;28;20045;-57
2021/11/30 10:44:15;;;;;;;0.82;0.82;;;;;;;;;;5052070;28;20484;-57
2021/11/30 10:46:42;;;;;;;2.08;1.35;;;;;;;;;;5052628;28;20052;-57
2021/11/30 10:49:10;;;;;;;1.35;1.25;;;;;;;;;;5053040;28;20037;-56
2021/11/30 10:51:45;;;;;;;2.90;1.27;;;;;;;;;;5052255;28;20057;-56
2021/11/30 10:54:15;;;;;;;1.60;1.50;;;;;;;;;;5052397;28;20495;-56
2021/11/30 10:56:41;;;;;;;2.13;1.85;;;;;;;;;;5034611;28;20492;-58
2021/11/30 10:59:19;;;;;;;1.95;1.75;;;;;;;;;;5052274;28;20443;-56
2021/11/30 11:01:47;;;;;;;1.45;1.35;;;;;;;;;;5052174;28;20048;-60
2021/11/30 11:04:14;;;;;;;1.25;1.15;;;;;;;;;;5045514;28;20046;-58
2021/11/30 11:07:12;;;;;;;2.22;1.45;;;;;;;;;;5032359;28;20041;-57
2021/11/30 11:09:47;;;;;;;3.10;2.38;;;;;;;;;;5032545;28;20052;-55
2021/11/30 11:12:25;;;;;;;1.40;1.30;;;;;;;;;;5032940;28;20476;-55
2021/11/30 11:14:52;;;;;;;3.15;1.40;;;;;;;;;;5036781;28;20045;-56
2021/11/30 11:17:31;;;;;;;1.95;1.42;;;;;;;;;;5036227;28;20049;-56
2021/11/30 11:19:58;;;;;;;1.50;1.10;;;;;;;;;;5037172;28;20037;-52
2021/11/30 11:22:27;;;;;;;1.85;1.17;;;;;;;;;;5036502;28;20046;-51
2021/11/30 11:25:00;;;;;;;0.85;0.75;;;;;;;;;;5036484;28;20041;-57
2021/11/30 11:27:39;;;;;;;1.15;1.02;;;;;;;;;;5019534;28;20046;-57
2021/11/30 11:30:08;;;;;;;2.05;0.95;;;;;;;;;;5036200;28;20065;-56
2021/11/30 11:32:36;;;;;;;0.77;0.77;;;;;;;;;;5036631;28;20037;-58
2021/11/30 11:35:04;;;;;;;1.55;1.45;;;;;;;;;;5036443;28;20092;-58
2021/11/30 11:37:31;;;;;;;1.23;0.90;;;;;;;;;;5036318;28;20508;-57
2021/11/30 11:39:58;;;;;;;0.77;0.77;;;;;;;;;;5036092;28;20038;-56
2021/11/30 11:42:25;;;;;;;0.77;0.77;;;;;;;;;;5036480;28;20073;-58
2021/11/30 11:44:53;;;;;;;3.00;1.40;;;;;;;;;;5036011;28;20045;-57
2021/11/30 11:47:22;;;;;;;0.95;0.90;;;;;;;;;;5036279;28;20061;-57
2021/11/30 11:49:51;;;;;;;0.82;0.82;;;;;;;;;;5035564;28;20176;-57
2021/11/30 11:52:21;;;;;;;1.02;1.00;;;;;;;;;;5036176;28;20064;-58
2021/11/30 11:55:22;;;;;;;2.97;1.45;;;;;;;;;;5035758;28;20037;-57
2021/11/30 11:57:57;;;;;;;2.85;1.10;;;;;;;;;;5003903;28;20132;-57
2021/11/30 12:00:27;;;;;;;1.27;1.17;;;;;;;;;;5036108;28;20075;-54
2021/11/30 12:03:01;;;;;;;1.77;1.52;;;;;;;;;;5035866;28;20037;-54
2021/11/30 12:05:52;;;;;;;3.13;1.60;;;;;;;;;;5036001;28;20041;-56
2021/11/30 12:08:28;;;;;;;2.00;1.50;;;;;;;;;;5035983;28;20046;-54
2021/11/30 12:10:55;;;;;;;2.20;1.33;;;;;;;;;;5040230;28;20051;-56
2021/11/30 12:13:25;;;;;;;4.18;1.95;;;;;;;;;;5055248;28;20432;-55
2021/11/30 12:15:58;;;;;;;3.60;2.42;;;;;;;;;;5055861;28;20041;-58
2021/11/30 12:18:42;;;;;;;2.22;1.60;;;;;;;;;;5055415;28;20499;-51
2021/11/30 12:21:23;;;;;;;1.15;1.10;;;;;;;;;;5046648;28;20041;-57
2021/11/30 12:23:52;;;;;;;1.00;0.90;;;;;;;;;;5053869;28;20037;-58
2021/11/30 12:26:34;;;;;;;1.45;1.17;;;;;;;;;;5055327;28;20063;-58
2021/11/30 12:29:07;;;;;;;3.58;1.90;;;;;;;;;;5055545;28;20437;-57
2021/11/30 12:31:36;;;;;;;1.90;1.60;;;;;;;;;;5037921;28;20128;-57
2021/11/30 12:34:05;;;;;;;1.30;1.20;;;;;;;;;;5047754;28;20073;-57
2021/11/30 12:36:35;;;;;;;3.45;1.02;;;;;;;;;;5055636;28;20037;-55
2021/11/30 12:39:08;;;;;;;1.20;1.10;;;;;;;;;;5054839;28;20045;-51
2021/11/30 12:41:41;;;;;;;3.20;1.25;;;;;;;;;;5055375;28;20049;-52
2021/11/30 12:44:09;;;;;;;1.85;1.65;;;;;;;;;;5054466;28;20416;-58
2021/11/30 12:46:40;;;;;;;1.13;1.00;;;;;;;;;;5051222;28;20558;-58
2021/11/30 12:49:25;;;;;;;1.50;1.30;;;;;;;;;;5051469;28;20411;-55
2021/11/30 12:52:05;;;;;;;4.40;1.90;;;;;;;;;;5055098;28;20056;-49
2021/11/30 12:54:35;;;;;;;1.65;1.27;;;;;;;;;;5054313;28;20034;-55
2021/11/30 12:57:03;;;;;;;2.10;1.38;;;;;;;;;;5037737;28;20049;-56
2021/11/30 12:59:41;;;;;;;1.58;1.17;;;;;;;;;;5054919;28;20072;-55
2021/11/30 13:02:29;;;;;;;3.53;1.40;;;;;;;;;;5051493;28;20049;-56
2021/11/30 13:05:09;;;;;;;1.67;1.30;;;;;;;;;;5054751;28;20408;-56
2021/11/30 13:07:57;;;;;;;1.50;1.40;;;;;;;;;;5054527;28;20040;-48
2021/11/30 13:10:25;;;;;;;4.28;1.58;;;;;;;;;;5054351;28;20170;-56
2021/11/30 13:12:58;;;;;;;5.40;2.05;;;;;;;;;;5053912;28;20037;-58
2021/11/30 13:15:26;;;;;;;12.98;1.90;;;;;;;;;;5039683;28;20048;-54
2021/11/30 13:17:54;;;;;;;3.25;1.58;;;;;;;;;;5053413;28;20491;-56
2021/11/30 13:20:30;;;;;;;3.97;1.40;;;;;;;;;;5066655;22;20048;-59
2021/11/30 13:22:58;;;;;;;1.67;1.23;;;;;;;;;;5053231;28;20103;-58
2021/11/30 13:25:34;;;;;;;2.90;1.80;;;;;;;;;;5054105;28;20124;-59
2021/11/30 13:28:04;;;;;;;1.83;1.45;;;;;;;;;;5053554;28;20061;-59
2021/11/30 13:30:34;;;;;;;2.28;1.13;;;;;;;;;;5053411;28;20115;-59
2021/11/30 13:33:03;;;;;;;5.60;1.60;;;;;;;;;;5052856;28;20045;-58
2021/11/30 13:35:32;;;;;;;2.17;1.88;;;;;;;;;;5052891;28;20483;-56
2021/11/30 13:38:11;;;;;;;1.60;1.50;;;;;;;;;;5053064;28;20041;-60
2021/11/30 13:40:42;;;;;;;4.60;1.77;;;;;;;;;;5048163;28;20033;-66
2021/11/30 13:43:18;;;;;;;2.08;1.58;;;;;;;;;;5054197;28;20041;-62
2021/11/30 13:45:51;;;;;;;1.95;1.48;;;;;;;;;;5057057;28;20044;-58
2021/11/30 13:48:33;;;;;;;3.58;1.60;;;;;;;;;;5061842;28;20047;-64
2021/11/30 13:51:04;;;;;;;3.97;2.35;;;;;;;;;;5055463;28;20041;-65
2021/11/30 13:53:33;;;;;;;3.13;2.15;;;;;;;;;;5057666;28;20068;-64
2021/11/30 13:56:30;;;;;;;8.98;2.38;;;;;;;;;;5019626;28;20131;-64
2021/11/30 13:59:28;;;;;;;9.40;3.80;;;;;;;;;;5054788;28;20059;-64
2021/11/30 14:02:08;;;;;;;2.17;1.95;;;;;;;;;;5061526;28;20417;-58
2021/11/30 14:04:37;;;;;;;3.45;2.70;;;;;;;;;;5053586;28;20080;-59
2021/11/30 14:07:06;;;;;;;4.05;2.55;;;;;;;;;;5054322;28;20052;-63
2021/11/30 14:09:51;;;;;;;4.80;1.83;;;;;;;;;;5060753;28;20040;-61
2021/11/30 14:12:20;;;;;;;;;;;;;;;;;;5061082;28;20395;-59
2021/11/30 14:14:52;;;;;;;2.33;1.92;;;;;;;;;;5043206;28;19921;-60
2021/11/30 14:17:31;;;;;;;3.38;2.13;;;;;;;;;;5056511;28;20049;-60
2021/11/30 14:20:05;;;;;;;7.22;1.73;;;;;;;;;;5063056;28;20086;-59
2021/11/30 14:22:37;;;;;;;8.15;2.25;;;;;;;;;;5060561;28;20044;-56
2021/11/30 14:25:09;;;;;;;3.78;2.10;;;;;;;;;;5061262;28;20033;-59
2021/11/30 14:27:52;;;;;;;5.60;3.08;;;;;;;;;;5051752;28;20132;-58
2021/11/30 14:30:25;;;;;;;3.00;2.65;;;;;;;;;;5057426;28;20063;-58
2021/11/30 14:33:11;;;;;;;3.20;2.40;;;;;;;;;;5060842;28;20037;-59
2021/11/30 14:35:45;;;;;;;5.95;3.60;;;;;;;;;;5056900;28;20044;-56
2021/11/30 14:38:35;;;;;;;3.63;3.03;;;;;;;;;;5050609;28;20044;-60
2021/11/30 14:41:32;;;;;;;6.35;3.38;;;;;;;;;;5054319;28;20408;-59
2021/11/30 14:43:58;;;;;;;5.90;3.20;;;;;;;;;;5057760;28;20093;-59
2021/11/30 14:46:30;;;;;;;6.38;4.90;;;;;;;;;;5057001;28;20041;-60
2021/11/30 14:48:58;;;;;;;6.45;3.78;;;;;;;;;;5050116;28;20052;-59
2021/11/30 14:51:31;;;;;;;5.95;2.83;;;;;;;;;;5056424;28;20052;-59
2021/11/30 14:54:04;;;;;;;4.32;2.88;;;;;;;;;;5063883;28;20110;-59
2021/11/30 14:56:41;;;;;;;9.23;3.38;;;;;;;;;;5056979;28;20045;-59
2021/11/30 14:59:08;;;;;;;4.90;3.63;;;;;;;;;;5032461;28;20049;-57
2021/11/30 15:01:52;;;;;;;10.80;3.17;;;;;;;;;;5056245;28;20529;-60
2021/11/30 15:04:27;;;;;;;4.22;3.25;;;;;;;;;;5060612;28;20068;-59
2021/11/30 15:06:54;;;;;;;9.25;4.28;;;;;;;;;;5052423;28;20045;-60
2021/11/30 15:09:28;;;;;;;13.20;4.50;;;;;;;;;;5049153;28;20048;-59